Time;durP1;ratioP1;P1;durP2;ratioP2;P2;SDS_P1;SDS_P2;PMS_P1;PMS_P2;Temp;Humidity;BMP_temperature;BMP_pressure;BME280_temperature;BME280_humidity;BME280_pressure;Samples;Min_cycle;Max_cycle;Signal;HPM_P1;HPM_P2
2024/02/12 00:00:43;;;;;;;8.00;4.95;;;9.20;99.90;;;9.35;78.64;98596.00;5036017;28;20496;-86
2024/02/12 00:03:17;;;;;;;10.68;5.47;;;9.20;99.90;;;9.32;78.69;98592.00;5051154;28;20492;-86
2024/02/12 00:05:46;;;;;;;10.32;5.50;;;9.20;99.90;;;9.30;78.53;98599.41;5036066;28;20045;-86
2024/02/12 00:08:16;;;;;;;9.82;5.82;;;9.10;99.90;;;9.28;78.46;98602.34;5002135;28;20497;-87
2024/02/12 00:10:45;;;;;;;11.25;5.75;;;9.10;99.90;;;9.27;78.32;98606.06;5034300;28;20072;-87
2024/02/12 00:13:13;;;;;;;12.70;6.30;;;9.10;99.90;;;9.26;78.27;98612.41;5035694;28;20140;-87
2024/02/12 00:15:41;;;;;;;11.02;6.18;;;9.10;99.90;;;9.24;78.11;98608.41;4985430;28;20080;-87
2024/02/12 00:18:09;;;;;;;11.18;6.05;;;9.10;99.90;;;9.20;77.98;98616.06;5050770;28;20053;-87
2024/02/12 00:20:37;;;;;;;12.20;5.88;;;9.00;99.90;;;9.18;78.11;98620.84;5050940;28;20041;-86
2024/02/12 00:23:06;;;;;;;14.45;7.35;;;9.00;99.90;;;9.16;77.98;98616.81;5018139;28;20061;-86
2024/02/12 00:25:35;;;;;;;14.35;7.55;;;9.00;99.90;;;9.13;78.12;98620.78;5035440;28;20033;-87
2024/02/12 00:28:03;;;;;;;12.93;7.85;;;9.00;99.90;;;9.12;78.10;98613.81;5017693;28;20575;-87
2024/02/12 00:30:33;;;;;;;13.23;7.90;;;8.90;99.90;;;9.11;78.30;98614.88;5017886;28;20100;-86
2024/02/12 00:33:04;;;;;;;13.98;8.32;;;8.90;99.90;;;9.10;78.36;98618.59;5018700;28;20045;-87
2024/02/12 00:35:32;;;;;;;15.05;8.57;;;8.90;99.90;;;9.08;77.86;98631.34;5034932;28;20057;-86
2024/02/12 00:38:01;;;;;;;17.75;8.70;;;8.90;99.90;;;9.06;77.97;98629.97;5035579;28;20483;-86
2024/02/12 00:40:28;;;;;;;17.05;8.65;;;8.90;99.90;;;9.05;77.96;98628.38;5035133;28;20092;-86
2024/02/12 00:42:58;;;;;;;16.70;8.60;;;8.90;99.90;;;9.05;78.13;98634.50;5017011;28;20091;-87
2024/02/12 00:45:27;;;;;;;12.20;7.15;;;8.80;99.90;;;9.05;78.31;98633.69;5050121;28;20085;-87
2024/02/12 00:47:55;;;;;;;13.52;7.35;;;8.80;99.90;;;9.05;78.44;98639.00;5033887;28;20045;-87
2024/02/12 00:50:23;;;;;;;12.60;7.55;;;8.90;99.90;;;9.04;78.52;98638.22;5033530;28;20096;-86
2024/02/12 00:52:52;;;;;;;13.50;7.75;;;8.90;99.90;;;9.06;78.85;98635.28;5001180;28;20045;-87
2024/02/12 00:55:20;;;;;;;10.95;7.05;;;8.90;99.90;;;9.06;79.17;98638.75;5001371;28;20052;-87
2024/02/12 00:57:48;;;;;;;16.58;7.43;;;8.90;99.90;;;9.08;79.38;98634.00;5017268;28;20052;-87
2024/02/12 01:00:20;;;;;;;13.25;7.47;;;8.90;99.90;;;9.11;79.71;98635.34;5034742;28;20046;-87
2024/02/12 01:02:48;;;;;;;13.85;7.45;;;9.00;99.90;;;9.12;79.75;98644.94;5050240;28;20132;-87
2024/02/12 01:05:17;;;;;;;11.80;7.63;;;9.00;99.90;;;9.11;79.92;98646.78;5050485;28;20059;-87
2024/02/12 01:07:46;;;;;;;15.40;8.50;;;9.00;99.90;;;9.14;79.85;98642.84;5001286;28;20072;-87
2024/02/12 01:10:16;;;;;;;14.48;8.60;;;9.00;99.90;;;9.14;79.80;98643.66;5035423;28;20101;-86
2024/02/12 01:12:43;;;;;;;15.40;9.70;;;9.00;99.90;;;9.14;79.75;98648.97;5035071;28;20038;-86
2024/02/12 01:15:12;;;;;;;14.32;9.07;;;9.00;99.90;;;9.11;79.74;98659.28;5034900;28;20464;-86
2024/02/12 01:17:41;;;;;;;14.77;9.10;;;9.00;99.90;;;9.12;79.73;98664.34;5033602;28;20045;-86
2024/02/12 01:20:11;;;;;;;14.75;9.02;;;9.00;99.90;;;9.12;79.57;98667.00;5017354;28;20525;-86
2024/02/12 01:22:40;;;;;;;14.52;9.23;;;9.00;99.90;;;9.13;79.59;98668.66;5001012;28;20099;-87
2024/02/12 01:25:08;;;;;;;14.98;8.93;;;9.00;99.90;;;9.13;79.75;98675.81;5050231;28;20069;-87
2024/02/12 01:27:38;;;;;;;16.45;9.43;;;9.00;99.90;;;9.11;79.76;98684.03;4984236;28;20145;-87
2024/02/12 01:30:08;;;;;;;16.17;9.70;;;9.00;99.90;;;9.11;80.03;98681.38;5050079;28;20060;-87
2024/02/12 01:32:36;;;;;;;16.50;9.80;;;9.00;99.90;;;9.14;80.24;98690.72;5033894;28;20099;-87
2024/02/12 01:35:06;;;;;;;15.45;9.63;;;9.00;99.90;;;9.16;80.11;98691.28;5000752;28;20041;-87
2024/02/12 01:37:34;;;;;;;18.45;9.73;;;9.00;99.90;;;9.17;80.21;98695.53;5017181;28;20539;-87
2024/02/12 01:40:02;;;;;;;15.65;9.80;;;9.00;99.90;;;9.17;80.24;98703.50;5049983;28;20040;-86
2024/02/12 01:42:29;;;;;;;18.67;11.02;;;9.10;99.90;;;9.18;80.13;98700.63;5034272;28;20488;-86
2024/02/12 01:45:04;;;;;;;15.55;9.85;;;9.10;99.90;;;9.18;80.60;98705.94;5034071;28;20417;-86
2024/02/12 01:47:33;;;;;;;17.52;10.73;;;9.10;99.90;;;9.19;80.52;98709.41;5034343;28;20551;-87
2024/02/12 01:50:02;;;;;;;18.90;9.90;;;9.10;99.90;;;9.17;80.63;98706.97;5034197;28;20591;-87
2024/02/12 01:52:32;;;;;;;17.58;10.30;;;9.10;99.90;;;9.17;80.80;98701.66;5034317;28;20037;-87
2024/02/12 01:55:03;;;;;;;16.35;10.10;;;9.10;99.90;;;9.20;81.02;98711.81;5016989;28;20570;-87
2024/02/12 01:57:33;;;;;;;18.52;10.48;;;9.10;99.90;;;9.21;80.95;98716.06;5033182;28;20056;-87
2024/02/12 02:00:04;;;;;;;19.27;10.85;;;9.10;99.90;;;9.21;80.97;98710.75;5034298;28;20053;-86
2024/02/12 02:02:42;;;;;;;15.40;9.80;;;9.10;99.90;;;9.20;80.92;98717.13;5033986;28;20052;-86
2024/02/12 02:05:12;;;;;;;21.73;10.43;;;9.10;99.90;;;9.15;81.12;98721.59;5032650;28;20087;-86
2024/02/12 02:07:41;;;;;;;20.70;10.00;;;9.10;99.90;;;9.11;81.41;98721.25;5033772;28;20046;-87
2024/02/12 02:10:14;;;;;;;18.25;10.30;;;9.10;99.90;;;9.09;81.54;98725.22;5034200;28;20053;-87
2024/02/12 02:12:46;;;;;;;18.17;10.82;;;9.00;99.90;;;9.07;82.05;98728.09;5016609;28;20060;-87
2024/02/12 02:15:14;;;;;;;17.85;11.18;;;9.00;99.90;;;9.07;82.02;98729.97;4985016;28;20076;-86
2024/02/12 02:17:42;;;;;;;20.67;12.05;;;9.00;99.90;;;9.11;82.14;98736.41;5033838;28;20037;-87
2024/02/12 02:20:12;;;;;;;18.88;11.80;;;9.00;99.90;;;9.14;81.96;98735.94;5033664;28;20034;-86
2024/02/12 02:22:41;;;;;;;20.90;12.45;;;9.00;99.90;;;9.17;81.64;98735.44;4984141;28;20144;-86
2024/02/12 02:25:12;;;;;;;23.15;12.80;;;9.10;99.90;;;9.14;81.86;98739.41;5049458;28;20096;-86
2024/02/12 02:27:40;;;;;;;20.00;12.02;;;9.10;99.90;;;9.15;81.78;98738.34;5016406;28;20042;-86
2024/02/12 02:30:12;;;;;;;19.60;12.45;;;9.10;99.90;;;9.11;81.92;98741.72;5015917;28;20479;-87
2024/02/12 02:32:41;;;;;;;21.10;13.48;;;9.10;99.90;;;9.10;82.01;98746.25;5015887;28;20053;-86
2024/02/12 02:35:09;;;;;;;23.90;13.70;;;9.00;99.90;;;9.09;82.21;98741.97;5016309;28;20050;-87
2024/02/12 02:37:38;;;;;;;21.65;14.15;;;9.00;99.90;;;9.10;82.14;98746.25;5033391;28;20053;-87
2024/02/12 02:40:08;;;;;;;22.77;14.35;;;9.00;99.90;;;9.12;82.36;98749.47;4999305;28;20041;-87
2024/02/12 02:42:39;;;;;;;23.97;14.97;;;9.10;99.90;;;9.14;82.29;98758.00;5016547;28;20041;-87
2024/02/12 02:45:09;;;;;;;23.00;14.98;;;9.10;99.90;;;9.16;82.17;98755.91;5033454;28;20555;-87
2024/02/12 02:47:42;;;;;;;27.10;16.40;;;9.10;99.90;;;9.14;82.41;98759.88;5048593;28;20053;-87
2024/02/12 02:50:11;;;;;;;34.75;18.58;;;9.10;99.90;;;9.06;82.34;98765.59;5015714;28;20103;-86
2024/02/12 02:52:39;;;;;;;34.08;17.75;;;9.00;99.90;;;9.00;82.52;98767.38;5048408;28;20115;-87
2024/02/12 02:55:11;;;;;;;36.00;18.75;;;9.00;99.90;;;9.03;82.92;98765.03;5033433;28;20041;-87
2024/02/12 02:57:40;;;;;;;30.98;19.02;;;9.00;99.90;;;9.05;82.54;98774.63;5033395;28;20045;-87
2024/02/12 03:00:11;;;;;;;36.55;19.58;;;9.00;99.90;;;9.01;82.59;98769.78;5019932;28;20141;-86
2024/02/12 03:02:38;;;;;;;32.57;18.87;;;9.00;99.90;;;8.97;82.93;98771.31;5019863;28;20475;-86
2024/02/12 03:05:08;;;;;;;37.88;19.67;;;9.00;99.90;;;9.01;83.09;98772.44;5037325;28;20307;-87
2024/02/12 03:07:36;;;;;;;36.20;19.98;;;9.00;99.90;;;9.04;82.88;98773.81;5052424;28;20045;-86
2024/02/12 03:10:07;;;;;;;40.05;20.15;;;9.10;99.90;;;9.04;82.81;98779.13;5002877;28;20072;-87
2024/02/12 03:12:34;;;;;;;37.42;21.60;;;9.00;99.90;;;9.06;82.66;98784.22;5019426;28;20053;-87
2024/02/12 03:15:05;;;;;;;44.03;22.85;;;9.00;99.90;;;9.05;82.75;98787.91;5019008;28;20053;-87
2024/02/12 03:17:32;;;;;;;41.92;22.90;;;9.00;99.90;;;9.07;82.81;98783.94;5037060;28;20140;-87
2024/02/12 03:20:00;;;;;;;43.15;22.67;;;9.00;99.90;;;9.02;82.68;98789.19;5018923;28;20045;-86
2024/02/12 03:22:28;;;;;;;47.90;25.10;;;9.00;99.90;;;9.00;82.82;98781.47;5036715;28;20057;-86
2024/02/12 03:24:56;;;;;;;44.17;24.23;;;9.00;99.90;;;9.01;82.88;98784.94;5051982;28;20037;-87
2024/02/12 03:27:23;;;;;;;46.15;24.98;;;9.00;99.90;;;9.01;82.66;98790.25;5036898;28;20204;-87
2024/02/12 03:29:51;;;;;;;49.75;25.45;;;9.00;99.90;;;8.98;82.67;98786.25;5035287;28;20133;-87
2024/02/12 03:32:21;;;;;;;44.85;25.25;;;9.00;99.90;;;9.01;82.78;98791.06;5051794;28;20045;-87
2024/02/12 03:34:48;;;;;;;49.25;25.67;;;9.00;99.90;;;9.05;82.94;98793.25;5018604;28;20046;-87
2024/02/12 03:37:19;;;;;;;45.40;24.83;;;9.00;99.90;;;9.07;82.90;98793.78;5036804;28;20049;-87
2024/02/12 03:39:46;;;;;;;49.78;25.30;;;9.00;99.90;;;9.11;82.60;98794.91;5034539;28;20425;-87
2024/02/12 03:42:14;;;;;;;49.95;24.75;;;9.00;99.90;;;9.08;82.18;98798.88;5018619;28;20478;-87
2024/02/12 03:44:42;;;;;;;46.92;25.88;;;9.00;99.90;;;9.04;82.08;98808.38;5002287;28;20096;-86
2024/02/12 03:47:11;;;;;;;47.50;25.27;;;9.00;99.90;;;9.04;82.13;98811.03;5036386;28;20574;-87
2024/02/12 04:00:41;;;;;;;50.53;26.50;;;9.00;99.90;;;9.03;82.05;98834.19;5032544;28;20571;-87
2024/02/12 04:03:10;;;;;;;45.10;24.15;;;9.00;99.90;;;9.06;82.03;98832.88;5035987;28;20564;-87
2024/02/12 04:05:39;;;;;;;50.33;25.25;;;9.00;99.90;;;9.08;81.69;98836.13;5035680;28;20504;-86
2024/02/12 04:08:09;;;;;;;49.00;25.55;;;9.00;99.90;;;9.05;81.53;98849.88;5036000;28;20049;-86
2024/02/12 04:10:38;;;;;;;46.85;25.10;;;9.00;99.90;;;8.98;81.54;98852.72;5018143;28;20145;-86
2024/02/12 04:13:06;;;;;;;47.70;25.23;;;8.90;99.90;;;9.01;81.88;98857.53;5002238;28;20415;-87
2024/02/12 04:15:40;;;;;;;47.80;24.73;;;9.00;99.90;;;9.01;81.38;98864.69;5051112;28;20471;-87
2024/02/12 04:18:08;;;;;;;46.25;24.65;;;9.00;99.90;;;9.00;81.67;98874.53;5018500;28;20135;-87
2024/02/12 04:20:39;;;;;;;47.20;24.92;;;8.90;99.90;;;9.02;81.72;98871.63;5018065;28;20045;-86
2024/02/12 04:23:11;;;;;;;48.00;23.48;;;8.90;99.90;;;9.01;81.56;98875.34;5034237;28;20053;-87
2024/02/12 04:25:39;;;;;;;41.08;22.60;;;8.90;99.90;;;8.95;81.45;98886.94;5019069;28;20413;-87
2024/02/12 04:28:09;;;;;;;37.78;22.25;;;8.90;99.90;;;8.98;81.61;98886.47;5035855;28;20133;-87
2024/02/12 04:30:37;;;;;;;40.17;22.50;;;8.90;99.90;;;8.99;81.48;98886.22;5035576;28;20058;-86
2024/02/12 04:33:05;;;;;;;39.80;22.38;;;8.90;99.90;;;8.93;81.20;98887.19;4985690;28;20084;-87
2024/02/12 04:35:35;;;;;;;44.00;23.92;;;8.90;99.90;;;8.89;81.11;98890.56;5001743;28;20042;-87
2024/02/12 04:38:06;;;;;;;42.72;22.23;;;8.90;99.90;;;8.92;81.31;98890.88;5035717;28;20045;-87
2024/02/12 04:40:34;;;;;;;;;;;8.90;99.90;;;8.91;80.58;98889.25;5036061;28;20049;-87
2024/02/12 04:43:04;;;;;;;33.20;17.90;;;8.90;99.90;;;8.83;79.60;98894.16;5017723;28;19921;-87
2024/02/12 04:45:31;;;;;;;30.45;17.13;;;8.80;99.90;;;8.76;79.34;98894.31;5017420;28;20048;-87
2024/02/12 04:47:59;;;;;;;30.98;16.80;;;8.80;99.90;;;8.83;79.41;98899.47;5035659;28;20045;-87
2024/02/12 04:50:28;;;;;;;36.20;18.23;;;8.80;99.90;;;8.89;79.38;98895.88;5033553;28;20072;-86
2024/02/12 04:52:56;;;;;;;35.92;16.90;;;8.90;99.90;;;8.94;79.17;98904.75;5035230;28;20073;-87
2024/02/12 04:55:26;;;;;;;29.92;17.00;;;8.90;99.90;;;8.97;79.12;98903.44;5018113;28;20103;-87
2024/02/12 04:57:53;;;;;;;32.78;17.45;;;8.90;99.90;;;8.97;78.85;98906.91;5017590;28;20053;-87
2024/02/12 05:00:21;;;;;;;32.90;17.30;;;8.90;99.90;;;9.00;78.75;98911.75;5050280;28;20128;-86
2024/02/12 05:02:49;;;;;;;32.83;17.63;;;8.90;99.90;;;8.99;78.52;98912.00;5001433;28;20168;-87
2024/02/12 05:05:17;;;;;;;34.45;17.70;;;8.90;99.90;;;9.01;78.37;98915.22;5017712;28;20500;-87
2024/02/12 05:07:45;;;;;;;32.78;16.38;;;8.90;99.90;;;8.99;78.40;98912.81;5035355;28;20512;-87
2024/02/12 05:10:12;;;;;;;32.53;17.30;;;8.90;99.90;;;9.00;78.23;98916.28;5035095;28;20041;-86
2024/02/12 05:12:41;;;;;;;29.45;16.42;;;8.90;99.90;;;9.01;78.63;98923.19;5017219;28;20041;-86
2024/02/12 05:15:10;;;;;;;28.70;16.50;;;8.90;99.90;;;9.00;78.11;98917.06;5017110;28;20044;-86
2024/02/12 05:17:52;;;;;;;40.63;18.48;;;8.90;99.90;;;8.86;77.29;98922.94;5000885;28;20051;-86
2024/02/12 05:23:09;;;;;;;37.50;19.73;;;8.80;99.90;;;8.90;78.40;98924.06;5019990;28;20128;-87
2024/02/12 05:25:36;;;;;;;43.42;21.15;;;8.80;99.90;;;8.90;78.45;98930.19;5034581;28;20041;-87
2024/02/12 05:28:07;;;;;;;45.55;22.90;;;8.80;99.90;;;8.87;78.51;98929.84;5016882;28;20479;-87
2024/02/12 05:30:35;;;;;;;42.78;23.40;;;8.70;99.90;;;8.84;78.65;98923.19;5033119;28;20041;-87
2024/02/12 05:33:03;;;;;;;40.58;21.67;;;8.70;99.90;;;8.84;78.69;98938.31;5050320;28;20124;-86
2024/02/12 05:35:30;;;;;;;44.72;24.13;;;8.70;99.90;;;8.77;78.45;98931.28;5050299;28;20076;-86
2024/02/12 05:37:58;;;;;;;44.72;23.73;;;8.70;99.90;;;8.80;78.50;98926.53;5017500;28;20045;-87
2024/02/12 05:40:25;;;;;;;41.70;22.80;;;8.70;99.90;;;8.80;78.50;98931.84;5017126;28;20140;-86
2024/02/12 05:42:53;;;;;;;43.63;23.02;;;8.70;99.90;;;8.80;78.38;98929.19;5016535;28;20048;-86
2024/02/12 05:45:22;;;;;;;42.65;23.20;;;8.70;99.90;;;8.79;78.21;98932.91;5032929;28;20041;-87
2024/02/12 05:47:49;;;;;;;43.55;23.17;;;8.60;99.90;;;8.76;77.92;98942.94;5034531;28;20041;-87
2024/02/12 05:50:18;;;;;;;43.95;23.55;;;8.60;99.90;;;8.74;77.92;98942.41;5034017;28;20117;-87
2024/02/12 05:52:46;;;;;;;45.63;23.40;;;8.60;99.90;;;8.73;77.80;98943.41;5034029;28;20520;-87
2024/02/12 05:55:14;;;;;;;43.60;23.40;;;8.60;99.90;;;8.73;78.01;98938.09;5034233;28;20092;-87
2024/02/12 05:57:41;;;;;;;44.47;24.08;;;8.60;99.90;;;8.71;78.06;98940.19;5016600;28;20049;-87
2024/02/12 06:00:10;;;;;;;41.97;23.23;;;8.60;99.90;;;8.70;77.64;98932.47;5033707;28;20132;-86
2024/02/12 06:02:39;;;;;;;49.05;25.15;;;8.50;99.90;;;8.69;77.54;98939.66;4999364;28;20470;-87
2024/02/12 06:05:07;;;;;;;43.67;23.73;;;8.50;99.90;;;8.66;77.73;98939.31;5033842;28;20136;-87
2024/02/12 06:07:35;;;;;;;43.33;24.35;;;8.40;99.90;;;8.64;77.37;98941.41;5032557;28;20523;-87
2024/02/12 06:10:03;;;;;;;43.88;24.38;;;8.40;99.90;;;8.61;77.38;98944.53;5016744;28;20057;-86
2024/02/12 06:12:31;;;;;;;44.22;23.83;;;8.50;99.90;;;8.60;77.30;98940.25;5049445;28;20076;-86
2024/02/12 06:14:58;;;;;;;45.03;23.60;;;8.40;99.90;;;8.58;77.24;98956.41;5034407;28;20045;-86
2024/02/12 06:17:26;;;;;;;43.17;23.65;;;8.40;99.90;;;8.55;77.07;98962.22;5015569;28;20046;-86
2024/02/12 06:19:56;;;;;;;42.75;25.02;;;8.30;99.90;;;8.52;76.97;98962.66;5033998;28;20052;-86
2024/02/12 06:22:23;;;;;;;41.45;24.63;;;8.30;99.90;;;8.47;76.77;98971.34;5015954;28;20052;-87
2024/02/12 06:24:50;;;;;;;42.20;23.38;;;8.30;99.90;;;8.44;76.80;98979.81;5049163;28;20057;-87
2024/02/12 06:27:18;;;;;;;41.20;23.75;;;8.20;99.90;;;8.42;76.67;98981.06;5016485;28;20045;-86
2024/02/12 06:29:46;;;;;;;46.47;25.42;;;8.10;99.90;;;8.40;76.71;98993.78;5016066;28;20041;-86
2024/02/12 06:32:14;;;;;;;51.53;27.35;;;8.20;99.90;;;8.41;77.08;98990.06;5015015;28;20136;-87
2024/02/12 06:34:44;;;;;;;50.90;27.23;;;8.20;99.90;;;8.42;77.56;98991.69;5033791;28;20037;-87
2024/02/12 06:37:14;;;;;;;48.50;27.75;;;8.20;99.90;;;8.43;77.72;98998.59;5033497;28;20558;-87
2024/02/12 06:39:43;;;;;;;53.03;29.88;;;8.20;99.90;;;8.45;77.98;99001.84;5016046;28;20513;-87
2024/02/12 06:42:11;;;;;;;52.22;27.95;;;8.30;99.90;;;8.45;78.17;99009.81;5048544;28;20045;-86
2024/02/12 06:44:39;;;;;;;52.83;29.70;;;8.30;99.90;;;8.46;78.33;99009.59;5032123;28;20041;-86
2024/02/12 06:47:08;;;;;;;59.13;30.52;;;8.30;99.90;;;8.48;78.69;99010.16;5033194;28;20124;-86
2024/02/12 06:49:36;;;;;;;52.20;28.50;;;8.30;99.90;;;8.51;78.86;99014.19;5048542;28;20068;-87
2024/02/12 06:52:04;;;;;;;52.13;28.90;;;8.30;99.90;;;8.52;78.91;99016.63;5033300;28;20052;-86
2024/02/12 06:54:34;;;;;;;55.53;29.48;;;8.40;99.90;;;8.52;79.20;99019.28;5015873;28;20045;-87
2024/02/12 06:57:01;;;;;;;53.35;30.08;;;8.40;99.90;;;8.53;79.38;99022.72;5048282;28;20081;-87
2024/02/12 06:59:29;;;;;;;63.08;31.45;;;8.40;99.90;;;8.57;79.36;99031.06;5033251;28;20493;-87
2024/02/12 07:01:57;;;;;;;56.90;31.80;;;8.40;99.90;;;8.58;79.69;99027.34;5033459;28;20148;-86
2024/02/12 07:04:25;;;;;;;56.60;30.95;;;8.40;99.90;;;8.59;79.78;99032.47;5031660;28;20045;-86
2024/02/12 07:06:54;;;;;;;60.00;31.10;;;8.50;99.90;;;8.59;79.50;99039.59;5031869;28;20099;-86
2024/02/12 07:09:22;;;;;;;63.58;32.30;;;8.40;99.90;;;8.56;79.54;99040.88;5033239;28;20045;-87
2024/02/12 07:11:51;;;;;;;55.08;30.02;;;8.40;99.90;;;8.54;79.49;99031.50;5015263;28;20050;-86
2024/02/12 07:14:18;;;;;;;54.60;30.83;;;8.40;99.90;;;8.54;79.14;99048.28;5033257;28;20138;-86
2024/02/12 07:16:46;;;;;;;54.58;29.45;;;8.40;99.90;;;8.53;79.10;99049.31;5015408;28;20056;-86
2024/02/12 07:19:14;;;;;;;61.97;31.95;;;8.40;99.90;;;8.54;79.14;99047.44;5033057;28;20049;-86
2024/02/12 07:21:41;;;;;;;60.00;30.67;;;8.40;99.90;;;8.54;79.26;99053.59;5015332;28;20053;-86
2024/02/12 07:24:09;;;;;;;58.17;31.85;;;8.40;99.90;;;8.57;79.21;99061.09;5033195;28;20556;-87
2024/02/12 07:26:36;;;;;;;57.00;30.55;;;8.40;99.90;;;8.57;79.25;99062.94;5033050;28;20492;-87
2024/02/12 07:29:05;;;;;;;60.28;30.05;;;8.40;99.90;;;8.60;79.45;99070.47;4982426;28;20046;-87
2024/02/12 07:31:33;;;;;;;57.70;30.30;;;8.40;99.90;;;8.61;79.68;99069.41;5015437;28;20057;-86
2024/02/12 07:34:03;;;;;;;56.25;30.02;;;8.40;99.90;;;8.62;79.77;99069.16;5015244;28;20481;-87
2024/02/12 07:36:31;;;;;;;59.40;32.45;;;8.50;99.90;;;8.63;79.70;99073.44;5048691;28;20150;-87
2024/02/12 07:39:00;;;;;;;55.08;30.48;;;8.50;99.90;;;8.64;79.86;99075.09;5032827;28;20132;-87
2024/02/12 07:41:28;;;;;;;56.92;31.20;;;8.50;99.90;;;8.65;80.13;99074.03;5032968;28;20056;-86
2024/02/12 07:43:55;;;;;;;53.50;30.42;;;8.50;99.90;;;8.67;80.32;99077.25;5049877;28;20397;-86
2024/02/12 07:46:24;;;;;;;60.75;30.23;;;8.50;99.90;;;8.67;80.11;99087.06;5018693;28;20046;-86
2024/02/12 07:48:53;;;;;;;55.63;30.15;;;8.50;99.90;;;8.69;80.41;99082.34;5019203;28;20528;-86
2024/02/12 07:51:22;;;;;;;56.33;30.67;;;8.60;99.90;;;8.71;80.40;99091.69;5019204;28;20037;-86
2024/02/12 07:53:51;;;;;;;60.35;31.65;;;8.60;99.90;;;8.74;80.33;99099.22;5003010;28;20103;-86
2024/02/12 07:56:19;;;;;;;61.40;32.47;;;8.60;99.90;;;8.75;80.34;99100.03;5036860;28;20041;-86
2024/02/12 07:58:46;;;;;;;61.00;31.40;;;8.60;99.90;;;8.75;80.26;99110.66;5036827;28;20045;-86
2024/02/12 08:01:13;;;;;;;59.13;29.98;;;8.60;99.90;;;8.74;80.27;99119.69;5051501;28;20092;-86
2024/02/12 08:03:44;;;;;;;55.95;31.10;;;8.60;99.90;;;8.73;80.50;99121.50;5036650;28;20037;-87
2024/02/12 08:06:11;;;;;;;63.22;32.22;;;8.70;99.90;;;8.74;80.53;99120.47;5019123;28;20045;-87
2024/02/12 08:08:39;;;;;;;62.33;32.35;;;8.60;99.90;;;8.71;80.45;99118.28;5003086;28;20107;-87
2024/02/12 08:11:08;;;;;;;55.45;30.13;;;8.60;99.90;;;8.73;80.52;99118.84;5002303;28;20087;-87
2024/02/12 08:13:36;;;;;;;61.13;30.88;;;8.70;99.90;;;8.73;80.36;99124.16;5018512;28;20056;-87
2024/02/12 08:16:04;;;;;;;54.50;29.40;;;8.70;99.90;;;8.75;80.48;99130.06;5019259;28;20065;-87
2024/02/12 08:18:32;;;;;;;57.33;30.10;;;8.70;99.90;;;8.77;80.39;99120.00;5052452;28;20099;-87
2024/02/12 08:21:01;;;;;;;61.45;30.25;;;8.70;99.90;;;8.81;80.63;99120.34;5036546;28;20493;-86
2024/02/12 08:23:28;;;;;;;60.33;29.40;;;8.70;99.90;;;8.82;80.66;99126.47;5036327;28;20053;-87
2024/02/12 08:25:56;;;;;;;55.13;29.23;;;8.70;99.90;;;8.81;80.71;99132.84;5036021;28;20421;-87
2024/02/12 08:28:24;;;;;;;57.92;28.73;;;8.80;99.90;;;8.84;80.70;99132.38;5037551;28;20493;-87
2024/02/12 08:30:52;;;;;;;58.35;28.65;;;8.80;99.90;;;8.86;80.52;99139.06;5039931;28;20060;-86
2024/02/12 08:33:20;;;;;;;53.92;29.13;;;8.80;99.90;;;8.83;80.54;99154.66;5018268;28;20053;-86
2024/02/12 08:35:48;;;;;;;59.10;29.92;;;8.80;99.90;;;8.84;80.50;99145.69;5035894;28;20045;-86
2024/02/12 08:38:16;;;;;;;54.90;28.52;;;8.80;99.90;;;8.88;80.53;99149.47;5034887;28;20103;-86
2024/02/12 08:40:44;;;;;;;61.35;28.55;;;8.80;99.90;;;8.87;80.53;99159.28;5017975;28;20501;-86
2024/02/12 08:43:11;;;;;;;52.92;27.80;;;8.90;99.90;;;8.87;80.42;99155.81;5036212;28;20042;-86
2024/02/12 08:45:40;;;;;;;54.58;28.25;;;8.80;99.90;;;8.86;80.54;99162.19;5018636;28;20493;-85
2024/02/12 08:48:08;;;;;;;53.45;26.42;;;8.80;99.90;;;8.88;80.33;99160.94;5053703;28;20432;-83
2024/02/12 08:50:36;;;;;;;52.38;28.13;;;8.80;99.90;;;8.89;80.52;99159.88;5039842;28;20046;-83
2024/02/12 08:53:04;;;;;;;55.47;27.73;;;8.80;99.90;;;8.90;80.54;99164.16;5041927;28;20050;-83
2024/02/12 08:55:33;;;;;;;58.58;29.15;;;8.90;99.90;;;8.88;80.73;99168.06;5006800;28;20048;-83
2024/02/12 08:58:04;;;;;;;53.72;26.98;;;8.90;99.90;;;8.92;81.00;99172.69;5040502;28;20053;-83
2024/02/12 09:00:32;;;;;;;;;;;8.90;99.90;;;8.89;81.05;99178.50;5038643;28;20092;-83
2024/02/12 09:02:59;;;;;;;51.97;27.15;;;8.90;99.90;;;8.92;81.38;99178.00;5039573;28;19972;-83
2024/02/12 09:05:27;;;;;;;55.22;27.65;;;8.90;99.90;;;8.96;81.51;99183.69;5039787;28;20057;-83
2024/02/12 09:07:54;;;;;;;54.78;27.10;;;8.90;99.90;;;8.94;81.33;99191.91;5022212;28;20045;-83
2024/02/12 09:10:22;;;;;;;59.80;27.45;;;8.90;99.90;;;8.94;81.46;99189.25;5039336;28;20037;-82
2024/02/12 09:12:51;;;;;;;61.78;28.08;;;8.90;99.90;;;8.91;81.48;99189.69;5041180;28;20049;-82
2024/02/12 09:15:19;;;;;;;49.38;26.55;;;8.90;99.90;;;8.90;81.92;99203.22;5022844;28;20124;-82
2024/02/12 09:17:47;;;;;;;52.97;25.75;;;8.90;99.90;;;8.89;81.78;99196.31;5023951;28;20080;-82
2024/02/12 09:20:14;;;;;;;61.75;26.90;;;8.90;99.90;;;8.87;81.91;99198.38;5039964;28;20081;-83
2024/02/12 09:22:42;;;;;;;49.58;26.20;;;8.90;99.90;;;8.87;82.22;99209.00;5041639;28;20120;-83
2024/02/12 09:25:11;;;;;;;48.55;25.27;;;8.90;99.90;;;8.91;82.23;99205.66;5039129;28;20054;-82
2024/02/12 09:27:39;;;;;;;53.90;26.13;;;9.00;99.90;;;8.96;82.11;99218.25;5020152;28;20045;-82
2024/02/12 09:30:11;;;;;;;51.15;25.58;;;9.00;99.90;;;8.97;81.97;99219.88;5038072;28;20132;-82
2024/02/12 09:32:39;;;;;;;49.95;25.50;;;9.00;99.90;;;8.98;81.83;99221.50;5037444;28;20053;-82
2024/02/12 09:35:07;;;;;;;51.58;25.60;;;9.00;99.90;;;8.99;81.89;99229.25;5020130;28;20109;-82
2024/02/12 09:37:37;;;;;;;49.10;24.80;;;9.00;99.90;;;8.96;81.76;99232.34;5054089;28;20524;-82
2024/02/12 09:40:07;;;;;;;50.22;25.63;;;9.00;99.90;;;8.94;81.93;99230.97;5036771;28;20124;-82
2024/02/12 09:42:35;;;;;;;46.15;24.27;;;8.90;99.90;;;8.93;82.33;99229.34;5051949;28;20049;-82
2024/02/12 09:45:07;;;;;;;51.17;27.27;;;8.90;99.90;;;8.89;82.72;99231.66;5037720;28;20107;-82
2024/02/12 09:47:37;;;;;;;56.17;27.00;;;8.90;99.90;;;8.70;82.85;99238.13;5037396;28;20552;-82
2024/02/12 09:50:07;;;;;;;59.95;29.95;;;8.80;99.90;;;8.77;83.36;99236.97;5002204;28;20049;-82
2024/02/12 09:52:35;;;;;;;50.80;23.45;;;8.80;99.90;;;8.83;83.65;99240.53;5018346;28;20095;-82
2024/02/12 09:55:04;;;;;;;48.60;24.88;;;8.90;99.90;;;8.85;83.87;99243.00;5018885;28;20045;-82
2024/02/12 09:57:32;;;;;;;50.50;25.30;;;8.90;99.90;;;8.86;83.76;99247.25;5019044;28;20378;-82
2024/02/12 10:00:00;;;;;;;59.65;27.35;;;8.90;99.90;;;8.90;83.77;99254.56;5036591;28;20124;-82
2024/02/12 10:02:34;;;;;;;44.22;23.83;;;8.90;99.90;;;8.89;83.51;99249.47;5034142;28;20057;-82
2024/02/12 10:05:06;;;;;;;41.75;22.80;;;8.90;99.90;;;8.93;83.75;99245.28;5018054;28;20488;-82
2024/02/12 10:07:39;;;;;;;;;;;8.90;99.90;;;8.86;83.29;99252.59;5051613;28;20059;-82
2024/02/12 10:10:07;;;;;;;41.08;21.38;;;8.90;99.90;;;8.89;83.38;99260.09;5017990;28;19921;-82
2024/02/12 10:12:36;;;;;;;38.85;21.80;;;8.90;99.90;;;8.89;83.42;99255.59;5017910;28;20034;-82
2024/02/12 10:15:04;;;;;;;37.60;21.75;;;8.90;99.90;;;8.88;83.49;99258.47;5018447;28;20497;-82
2024/02/12 10:17:32;;;;;;;43.70;23.45;;;8.90;99.90;;;8.85;83.39;99254.44;5036159;28;20049;-82
2024/02/12 10:20:00;;;;;;;42.75;23.35;;;8.80;99.90;;;8.82;83.63;99264.72;5017975;28;20145;-82
2024/02/12 10:22:29;;;;;;;48.25;25.60;;;8.80;99.90;;;8.88;83.93;99267.28;5018423;28;20077;-82
2024/02/12 10:24:56;;;;;;;39.42;23.13;;;8.90;99.90;;;8.90;83.85;99272.34;5036344;28;20049;-82
2024/02/12 10:27:25;;;;;;;46.78;25.77;;;8.90;99.90;;;8.89;84.15;99273.41;5001008;28;20413;-82
2024/02/12 10:29:59;;;;;;;52.13;26.48;;;8.90;99.90;;;8.80;84.63;99274.78;5017834;28;20049;-83
2024/02/12 10:32:27;;;;;;;48.33;26.08;;;8.90;99.90;;;8.87;85.32;99276.28;5035398;28;20549;-83
2024/02/12 10:34:55;;;;;;;52.67;27.38;;;8.90;99.90;;;8.94;85.85;99274.31;5050365;28;20129;-83
2024/02/12 10:37:26;;;;;;;50.25;26.02;;;9.00;99.90;;;9.03;85.85;99277.47;5001176;28;20144;-83
2024/02/12 10:39:57;;;;;;;45.17;25.00;;;9.10;99.90;;;8.97;85.48;99281.81;5002072;28;20111;-83